KTCL/TCL METAR and TAF weather

Enter ICAO airport designator
Station Type Date Time Source
KTCL METAR 2020/01/28 20:53 UTC NOAA

KTCL 282053Z 25003KT 10SM CLR 17/00 A3000 RMK AO2 SLP159 T01720000 56017


Station Type Date Time Source
KTCL Decoded METAR 2020/01/28 20:53 UTC NOAA

TUSCALOOSA REGIONAL AIRPORT, AL, United States (KTCL) 33-13N 087-37W
Jan 28, 2020 - 03:53 PM EST / 2020.01.28 2053 UTC
Wind: from the WSW (250 degrees) at 3 MPH (3 KT):0
Visibility: 10 mile(s):0
Sky conditions: clear
Temperature: 63.0 F (17.2 C)
Dew Point: 32.0 F (0.0 C)
Relative Humidity: 31%
Pressure (altimeter): 30 in. Hg (1015 hPa)
Pressure tendency: 0.05 inches (1.7 hPa) lower than three hours ago
ob: KTCL 282053Z 25003KT 10SM CLR 17/00 A3000 RMK AO2 SLP159 T01720000 56017
cycle: 21

Station Type Date Time Source
KTCL TAF 2020/01/28 18:22 UTC NOAA

TAF KTCL 281720Z 2818/2918 00000KT P6SM FEW250
FM290500 VRB03KT P6SM BKN090 PROB30 2912/2915 4SM -RA OVC025
FM291500 VRB04KT 6SM SHRA OVC070

Example: see airport list